createdAt,value
2022-12-23T00:01:07.465Z,98.15
2022-12-23T00:06:14.288Z,98.40
2022-12-23T00:11:20.348Z,97.48
2022-12-23T00:16:21.989Z,97.41
2022-12-23T00:21:23.917Z,97.46
2022-12-23T00:26:26.911Z,96.67
2022-12-23T00:31:28.762Z,96.76
2022-12-23T00:36:30.814Z,96.13
2022-12-23T00:41:51.504Z,95.57
2022-12-23T00:46:53.123Z,95.89
2022-12-23T00:51:54.767Z,95.79
2022-12-23T00:56:56.396Z,95.60
2022-12-23T01:02:16.790Z,95.62
2022-12-23T01:07:18.520Z,95.50
2022-12-23T01:12:20.237Z,95.63
2022-12-23T01:17:21.922Z,94.63
2022-12-23T01:22:23.652Z,94.90
2022-12-23T01:27:25.271Z,94.75
2022-12-23T01:32:26.945Z,94.03
2022-12-23T01:37:28.559Z,93.75
2022-12-23T01:42:46.458Z,93.93
2022-12-23T01:47:53.540Z,93.63
2022-12-23T01:53:06.839Z,93.94
2022-12-23T01:58:21.452Z,93.69
2022-12-23T02:03:41.410Z,93.39
2022-12-23T02:09:01.948Z,92.82
2022-12-23T02:14:49.616Z,93.39
2022-12-23T02:20:03.180Z,93.39
2022-12-23T02:25:36.978Z,93.36
2022-12-23T02:31:11.161Z,92.91
2022-12-23T02:36:23.142Z,93.26
2022-12-23T02:41:34.314Z,93.43
2022-12-23T02:46:49.964Z,93.47
2022-12-23T02:51:54.655Z,92.93
2022-12-23T02:56:57.329Z,93.29
2022-12-23T03:01:59.911Z,93.38
2022-12-23T03:07:07.372Z,93.41
2022-12-23T03:12:20.272Z,93.48
2022-12-23T03:17:43.200Z,93.56
2022-12-23T03:22:58.963Z,93.74
2022-12-23T03:28:20.434Z,94.13
2022-12-23T03:33:34.335Z,94.32
2022-12-23T03:38:38.028Z,94.10
2022-12-23T03:43:58.545Z,93.98
2022-12-23T03:49:02.751Z,93.67
2022-12-23T03:54:10.334Z,93.82
2022-12-23T03:59:19.681Z,93.79
2022-12-23T04:04:38.097Z,94.66
2022-12-23T04:09:39.748Z,94.16
2022-12-23T04:14:47.748Z,94.35
2022-12-23T04:19:49.453Z,94.67
2022-12-23T04:24:51.055Z,94.27
2022-12-23T04:29:52.850Z,94.42
2022-12-23T04:34:54.435Z,94.13
2022-12-23T04:39:56.023Z,94.64
2022-12-23T04:44:57.767Z,94.15
2022-12-23T04:49:59.408Z,94.27
2022-12-23T04:55:01.011Z,94.51
2022-12-23T05:00:04.044Z,94.30
2022-12-23T05:05:06.067Z,94.46
2022-12-23T05:10:08.503Z,94.81
2022-12-23T05:15:10.600Z,94.16
2022-12-23T05:20:12.212Z,94.44
2022-12-23T05:25:13.985Z,93.66
2022-12-23T05:30:15.724Z,92.62
2022-12-23T05:35:17.335Z,92.86
2022-12-23T05:40:23.789Z,91.93
2022-12-23T05:45:29.314Z,91.64
2022-12-23T05:50:31.041Z,91.91
2022-12-23T05:55:36.518Z,91.75
2022-12-23T06:00:38.138Z,91.09
2022-12-23T06:05:40.515Z,90.44
2022-12-23T06:10:42.146Z,90.78
2022-12-23T06:15:43.789Z,90.45
2022-12-23T06:20:47.278Z,90.42
2022-12-23T06:25:48.897Z,90.04
2022-12-23T06:30:57.405Z,90.34
2022-12-23T06:35:59.048Z,89.77
2022-12-23T06:41:00.894Z,89.82
2022-12-23T06:46:02.703Z,90.08
2022-12-23T06:51:04.581Z,90.78
2022-12-23T06:56:06.579Z,92.20
2022-12-23T07:01:10.006Z,93.13
2022-12-23T07:06:11.944Z,93.26
2022-12-23T07:11:13.556Z,94.32
2022-12-23T07:16:15.441Z,94.50
2022-12-23T07:21:26.488Z,94.93
2022-12-23T07:26:30.561Z,95.23
2022-12-23T07:31:32.282Z,95.70
2022-12-23T07:36:33.976Z,95.81
2022-12-23T07:41:35.659Z,95.69
2022-12-23T07:46:41.096Z,96.30
2022-12-23T07:51:42.783Z,95.96
2022-12-23T07:56:44.362Z,95.86
2022-12-23T08:01:46.170Z,96.65
2022-12-23T08:06:48.157Z,96.70
2022-12-23T08:11:49.843Z,96.84
2022-12-23T08:16:51.589Z,97.40
2022-12-23T08:21:53.257Z,96.84
2022-12-23T08:26:54.957Z,96.87
2022-12-23T08:31:56.677Z,97.00
2022-12-23T08:36:58.273Z,96.40
2022-12-23T08:42:00.010Z,96.25
2022-12-23T08:47:01.724Z,95.96
2022-12-23T08:52:03.828Z,95.40
2022-12-23T08:57:05.580Z,94.96
2022-12-23T09:02:10.013Z,94.40
2022-12-23T09:07:11.756Z,94.29
2022-12-23T09:12:13.473Z,94.75
2022-12-23T09:17:15.145Z,94.27
2022-12-23T09:22:16.782Z,94.37
2022-12-23T09:27:18.525Z,93.99
2022-12-23T09:32:20.347Z,93.75
2022-12-23T09:37:22.038Z,94.04
2022-12-23T09:42:45.595Z,93.35
2022-12-23T09:48:14.025Z,93.39
2022-12-23T09:53:19.797Z,93.52
2022-12-23T09:58:32.120Z,93.77
2022-12-23T10:04:00.170Z,92.89
2022-12-23T10:09:05.166Z,92.84
2022-12-23T10:14:23.943Z,92.69
2022-12-23T10:19:33.987Z,92.46
2022-12-23T10:24:41.445Z,91.94
2022-12-23T10:29:43.085Z,91.45
2022-12-23T10:34:56.938Z,91.05
2022-12-23T10:40:07.524Z,90.59
2022-12-23T10:45:24.641Z,90.13
2022-12-23T10:50:40.083Z,90.04
2022-12-23T10:55:41.708Z,89.90
2022-12-23T11:00:46.626Z,90.00
2022-12-23T11:05:51.436Z,89.27
2022-12-23T11:10:54.012Z,89.44
2022-12-23T11:16:18.952Z,88.80
2022-12-23T11:21:20.990Z,88.65
2022-12-23T11:26:22.646Z,88.28
2022-12-23T11:31:26.915Z,88.18
2022-12-23T11:36:30.253Z,87.19
2022-12-23T11:41:43.693Z,86.68
2022-12-23T11:46:45.287Z,86.89
2022-12-23T11:52:13.470Z,86.36
2022-12-23T11:57:17.232Z,85.67
2022-12-23T12:02:30.818Z,86.29
2022-12-23T12:07:33.089Z,86.46
2022-12-23T12:12:34.738Z,86.35
2022-12-23T12:17:45.260Z,86.66
2022-12-23T12:22:52.887Z,86.46
2022-12-23T12:28:00.062Z,86.07
2022-12-23T12:33:19.189Z,85.09
2022-12-23T12:38:34.498Z,85.41
2022-12-23T12:43:45.586Z,85.83
2022-12-23T12:48:51.311Z,85.89
2022-12-23T12:53:59.570Z,86.03
2022-12-23T12:59:06.269Z,85.92
2022-12-23T13:04:23.472Z,85.54
2022-12-23T13:09:39.204Z,85.09
2022-12-23T13:15:03.465Z,85.65
2022-12-23T13:20:20.600Z,85.68
2022-12-23T13:25:41.386Z,86.21
2022-12-23T13:30:49.884Z,85.96
2022-12-23T13:36:06.407Z,86.42
2022-12-23T13:41:33.197Z,86.48
2022-12-23T13:47:00.778Z,86.86
2022-12-23T13:52:15.072Z,86.84
2022-12-23T13:57:23.921Z,86.88
2022-12-23T14:02:37.477Z,87.25
2022-12-23T14:07:39.161Z,87.03
2022-12-23T14:12:42.465Z,87.04
2022-12-23T14:18:12.447Z,87.34
2022-12-23T14:23:43.419Z,87.64
2022-12-23T14:28:56.712Z,87.04
2022-12-23T14:34:25.806Z,87.12
2022-12-23T14:39:32.614Z,87.34
2022-12-23T14:44:37.299Z,87.18
2022-12-23T14:49:43.009Z,87.17
2022-12-23T14:55:00.370Z,87.43
2022-12-23T15:00:07.036Z,87.36
2022-12-23T15:05:08.912Z,87.00
2022-12-23T15:10:19.035Z,87.59
2022-12-23T15:15:26.055Z,87.49
2022-12-23T15:20:27.767Z,87.41
2022-12-23T15:25:34.636Z,87.51
2022-12-23T15:30:37.683Z,87.37
2022-12-23T15:35:39.952Z,87.47
2022-12-23T15:40:41.737Z,87.41
2022-12-23T15:45:43.703Z,87.70
2022-12-23T15:50:45.363Z,87.48
2022-12-23T15:55:47.832Z,87.42
2022-12-23T16:00:53.117Z,87.70
2022-12-23T16:05:55.216Z,88.07
2022-12-23T16:11:15.029Z,88.33
2022-12-23T16:16:31.633Z,87.99
2022-12-23T16:21:35.667Z,88.46
2022-12-23T16:26:41.825Z,87.68
2022-12-23T16:31:52.105Z,87.85
2022-12-23T16:36:55.997Z,88.00
2022-12-23T16:41:57.572Z,88.54
2022-12-23T16:47:06.028Z,88.12
2022-12-23T16:52:09.263Z,88.05
2022-12-23T16:57:10.889Z,88.14
2022-12-23T17:02:19.171Z,88.25
2022-12-23T17:07:21.123Z,88.35
2022-12-23T17:12:22.726Z,88.39
2022-12-23T17:17:25.975Z,88.12
2022-12-23T17:22:28.347Z,88.59
2022-12-23T17:27:29.976Z,88.44
2022-12-23T17:32:31.854Z,88.79
2022-12-23T17:37:33.572Z,89.39
2022-12-23T17:42:35.335Z,89.89
2022-12-23T17:47:36.911Z,90.29
2022-12-23T17:52:39.107Z,90.68
2022-12-23T17:57:40.718Z,91.71
2022-12-23T18:02:44.557Z,91.19
2022-12-23T18:07:46.149Z,91.59
2022-12-23T18:12:50.657Z,91.40
2022-12-23T18:17:53.085Z,92.85
2022-12-23T18:22:55.008Z,92.43
2022-12-23T18:27:56.647Z,92.79
2022-12-23T18:32:58.235Z,92.69
2022-12-23T18:38:00.414Z,92.59
2022-12-23T18:43:02.302Z,92.11
2022-12-23T18:48:05.847Z,92.85
2022-12-23T18:53:10.979Z,93.38
2022-12-23T18:58:13.500Z,93.50
2022-12-23T19:03:28.489Z,94.68
2022-12-23T19:08:30.243Z,94.24
2022-12-23T19:13:33.200Z,94.72
2022-12-23T19:18:34.965Z,95.40
2022-12-23T19:23:39.025Z,95.35
2022-12-23T19:28:41.541Z,95.15
2022-12-23T19:33:45.212Z,94.29
2022-12-23T19:38:47.445Z,95.58
2022-12-23T19:43:49.223Z,95.60
2022-12-23T19:48:54.452Z,94.74
2022-12-23T19:53:56.039Z,94.95
2022-12-23T19:58:58.111Z,94.49
2022-12-23T20:03:59.785Z,95.07
2022-12-23T20:09:04.335Z,95.15
2022-12-23T20:14:07.158Z,95.28
2022-12-23T20:19:08.915Z,95.34
2022-12-23T20:24:10.652Z,95.39
2022-12-23T20:29:12.308Z,96.04
2022-12-23T20:34:15.901Z,95.51
2022-12-23T20:39:17.713Z,96.81
2022-12-23T20:44:36.490Z,96.70
2022-12-23T20:49:38.993Z,96.13
2022-12-23T20:54:40.671Z,96.22
2022-12-23T20:59:42.233Z,96.46
2022-12-23T21:04:43.813Z,96.24
2022-12-23T21:09:45.435Z,96.07
2022-12-23T21:14:47.021Z,96.48
2022-12-23T21:19:48.646Z,95.87
2022-12-23T21:24:51.423Z,95.59
2022-12-23T21:29:53.029Z,96.53
2022-12-23T21:34:55.027Z,96.22
2022-12-23T21:39:56.689Z,96.57
2022-12-23T21:44:58.306Z,95.94
2022-12-23T21:49:59.962Z,95.68
2022-12-23T21:55:01.579Z,96.03
2022-12-23T22:00:03.362Z,96.17
2022-12-23T22:05:06.701Z,96.58
2022-12-23T22:10:08.964Z,96.81
2022-12-23T22:15:11.866Z,97.44
2022-12-23T22:20:13.690Z,97.53
2022-12-23T22:25:15.580Z,97.02
2022-12-23T22:30:17.286Z,97.53
2022-12-23T22:35:18.898Z,97.56
2022-12-23T22:40:20.577Z,97.83
2022-12-23T22:45:22.178Z,98.47
2022-12-23T22:50:23.835Z,98.46
2022-12-23T22:55:25.552Z,99.03
2022-12-23T23:00:27.213Z,100.00
2022-12-23T23:05:28.852Z,100.00
2022-12-23T23:10:30.511Z,100.00
2022-12-23T23:15:32.110Z,100.00
2022-12-23T23:20:33.707Z,99.39
2022-12-23T23:25:35.363Z,99.03
2022-12-23T23:30:36.974Z,99.84
2022-12-23T23:35:38.622Z,99.72
2022-12-23T23:40:40.291Z,100.00
2022-12-23T23:45:41.887Z,100.00
2022-12-23T23:50:43.850Z,100.00
2022-12-23T23:55:45.489Z,100.00
